KCLT/CLT METAR and TAF weather

Enter ICAO airport designator
Station Type Date Time Source
KCLT METAR 2019/12/06 03:52 UTC NOAA

KCLT 060352Z 16004KT 10SM FEW250 07/M03 A3020 RMK AO2 SLP226 T00721033


Station Type Date Time Source
KCLT Decoded METAR 2019/12/06 03:52 UTC NOAA

CHARLOTTE/DOUGLAS INTERNATIONAL , NC, United States (KCLT) 35-13N 80-57W 220M
Dec 05, 2019 - 10:52 PM EST / 2019.12.06 0352 UTC
Wind: from the SSE (160 degrees) at 5 MPH (4 KT):0
Visibility: 10 mile(s):0
Sky conditions: mostly clear
Temperature: 45.0 F (7.2 C)
Dew Point: 26.1 F (-3.3 C)
Relative Humidity: 47%
Pressure (altimeter): 30.2 in. Hg (1022 hPa)
ob: KCLT 060352Z 16004KT 10SM FEW250 07/M03 A3020 RMK AO2 SLP226 T00721033
cycle: 4

Station Type Date Time Source
KCLT TAF 2019/12/06 02:59 UTC NOAA

TAF
AMD KCLT 060159Z 0602/0706 18002KT P6SM FEW250
FM061500 21006KT P6SM BKN120
FM061900 23005KT P6SM SCT060 OVC090
FM070000 27002KT P6SM FEW080

Example: see airport list